createdAt,value
2018-06-20T00:02:00.000Z,99472
2018-06-20T00:07:00.000Z,99462
2018-06-20T00:12:00.000Z,99456
2018-06-20T00:17:00.000Z,99454
2018-06-20T00:22:00.000Z,99466
2018-06-20T00:27:00.000Z,99446
2018-06-20T00:32:00.000Z,99458
2018-06-20T00:37:00.000Z,99448
2018-06-20T00:42:00.000Z,99452
2018-06-20T00:47:00.000Z,99457
2018-06-20T00:52:00.000Z,99441
2018-06-20T00:57:00.000Z,99437
2018-06-20T01:02:00.000Z,99437
2018-06-20T01:07:00.000Z,99432
2018-06-20T01:12:00.000Z,99426
2018-06-20T01:17:00.000Z,99433
2018-06-20T01:22:00.000Z,99433
2018-06-20T01:27:00.000Z,99428
2018-06-20T01:32:00.000Z,99434
2018-06-20T01:37:00.000Z,99438
2018-06-20T01:42:00.000Z,99430
2018-06-20T01:47:00.000Z,99435
2018-06-20T01:52:00.000Z,99434
2018-06-20T01:57:00.000Z,99443
2018-06-20T02:02:00.000Z,99452
2018-06-20T02:07:00.000Z,99450
2018-06-20T02:12:00.000Z,99447
2018-06-20T02:17:00.000Z,99448
2018-06-20T02:22:00.000Z,99461
2018-06-20T02:27:00.000Z,99449
2018-06-20T02:32:00.000Z,99452
2018-06-20T02:37:00.000Z,99455
2018-06-20T02:42:00.000Z,99439
2018-06-20T02:47:00.000Z,99441
2018-06-20T02:52:00.000Z,99448
2018-06-20T02:57:00.000Z,99453
2018-06-20T03:02:00.000Z,99442
2018-06-20T03:07:00.000Z,99455
2018-06-20T03:12:00.000Z,99459
2018-06-20T03:17:00.000Z,99457
2018-06-20T03:22:00.000Z,99452
2018-06-20T03:27:00.000Z,99457
2018-06-20T03:32:00.000Z,99461
2018-06-20T03:37:00.000Z,99460
2018-06-20T03:42:00.000Z,99450
2018-06-20T03:47:00.000Z,99448
2018-06-20T03:52:00.000Z,99454
2018-06-20T03:57:00.000Z,99458
2018-06-20T04:02:00.000Z,99459
2018-06-20T04:07:00.000Z,99462
2018-06-20T04:12:00.000Z,99460
2018-06-20T04:17:00.000Z,99458
2018-06-20T04:22:00.000Z,99469
2018-06-20T04:27:00.000Z,99463
2018-06-20T04:32:00.000Z,99461
2018-06-20T04:37:00.000Z,99468
2018-06-20T04:42:00.000Z,99459
2018-06-20T04:47:00.000Z,99462
2018-06-20T04:52:00.000Z,99472
2018-06-20T04:57:00.000Z,99472
2018-06-20T05:02:00.000Z,99476
2018-06-20T05:07:00.000Z,99473
2018-06-20T05:12:00.000Z,99475
2018-06-20T05:17:00.000Z,99467
2018-06-20T05:22:00.000Z,99472
2018-06-20T05:27:00.000Z,99468
2018-06-20T05:32:00.000Z,99472
2018-06-20T05:37:00.000Z,99471
2018-06-20T05:42:00.000Z,99478
2018-06-20T05:47:00.000Z,99483
2018-06-20T05:52:00.000Z,99474
2018-06-20T05:57:00.000Z,99478
2018-06-20T06:03:00.000Z,99489
2018-06-20T06:08:00.000Z,99484
2018-06-20T06:13:00.000Z,99480
2018-06-20T06:18:00.000Z,99480
2018-06-20T06:23:00.000Z,99478
2018-06-20T06:28:00.000Z,99481
2018-06-20T06:33:00.000Z,99477
2018-06-20T06:38:00.000Z,99472
2018-06-20T06:43:00.000Z,99477
2018-06-20T06:48:00.000Z,99480
2018-06-20T06:53:00.000Z,99475
2018-06-20T06:58:00.000Z,99471
2018-06-20T07:03:00.000Z,99478
2018-06-20T07:08:00.000Z,99481
2018-06-20T07:13:00.000Z,99482
2018-06-20T07:18:00.000Z,99486
2018-06-20T07:23:00.000Z,99476
2018-06-20T07:28:00.000Z,99481
2018-06-20T07:33:00.000Z,99480
2018-06-20T07:38:00.000Z,99484
2018-06-20T07:43:00.000Z,99480
2018-06-20T07:48:00.000Z,99482
2018-06-20T07:53:00.000Z,99489
2018-06-20T07:58:00.000Z,99483
2018-06-20T08:03:00.000Z,99475
2018-06-20T08:08:00.000Z,99480
2018-06-20T08:13:00.000Z,99470
2018-06-20T08:18:00.000Z,99466
2018-06-20T08:23:00.000Z,99465
2018-06-20T08:28:00.000Z,99461
2018-06-20T08:33:00.000Z,99461
2018-06-20T08:38:00.000Z,99464
2018-06-20T08:43:00.000Z,99462
2018-06-20T08:48:00.000Z,99466
2018-06-20T08:53:00.000Z,99466
2018-06-20T08:58:00.000Z,99463
2018-06-20T09:03:00.000Z,99455
2018-06-20T09:08:00.000Z,99447
2018-06-20T09:13:00.000Z,99445
2018-06-20T09:18:00.000Z,99450
2018-06-20T09:23:00.000Z,99451
2018-06-20T09:28:00.000Z,99439
2018-06-20T09:33:00.000Z,99441
2018-06-20T09:38:00.000Z,99429
2018-06-20T09:43:00.000Z,99434
2018-06-20T09:48:00.000Z,99427
2018-06-20T09:53:00.000Z,99423
2018-06-20T09:58:00.000Z,99420
2018-06-20T10:03:00.000Z,99416
2018-06-20T10:08:00.000Z,99410
2018-06-20T10:13:00.000Z,99414
2018-06-20T10:18:00.000Z,99411
2018-06-20T10:23:00.000Z,99406
2018-06-20T10:28:00.000Z,99399
2018-06-20T10:33:00.000Z,99387
2018-06-20T10:38:00.000Z,99392
2018-06-20T10:43:00.000Z,99390
2018-06-20T10:48:00.000Z,99385
2018-06-20T10:53:00.000Z,99384
2018-06-20T10:58:00.000Z,99378
2018-06-20T11:03:00.000Z,99366
2018-06-20T11:08:00.000Z,99364
2018-06-20T11:13:00.000Z,99362
2018-06-20T11:18:00.000Z,99355
2018-06-20T11:23:00.000Z,99348
2018-06-20T11:28:00.000Z,99333
2018-06-20T11:34:00.000Z,99330
2018-06-20T11:39:00.000Z,99327
2018-06-20T11:44:00.000Z,99316
2018-06-20T11:49:00.000Z,99304
2018-06-20T11:54:00.000Z,99297
2018-06-20T11:59:00.000Z,99303
2018-06-20T12:04:00.000Z,99290
2018-06-20T12:09:00.000Z,99291
2018-06-20T12:14:00.000Z,99293
2018-06-20T12:19:00.000Z,99285
2018-06-20T12:24:00.000Z,99277
2018-06-20T12:29:00.000Z,99265
2018-06-20T12:34:00.000Z,99267
2018-06-20T12:39:00.000Z,99265
2018-06-20T12:44:00.000Z,99247
2018-06-20T12:49:00.000Z,99249
2018-06-20T12:54:00.000Z,99249
2018-06-20T12:59:00.000Z,99245
2018-06-20T13:04:00.000Z,99242
2018-06-20T13:09:00.000Z,99240
2018-06-20T13:14:00.000Z,99231
2018-06-20T13:19:00.000Z,99227
2018-06-20T13:24:00.000Z,99224
2018-06-20T13:29:00.000Z,99226
2018-06-20T13:34:00.000Z,99211
2018-06-20T13:39:00.000Z,99209
2018-06-20T13:44:00.000Z,99198
2018-06-20T13:49:00.000Z,99193
2018-06-20T13:54:00.000Z,99183
2018-06-20T13:59:00.000Z,99184
2018-06-20T14:04:00.000Z,99179
2018-06-20T14:09:00.000Z,99176
2018-06-20T14:14:00.000Z,99177
2018-06-20T14:19:00.000Z,99174
2018-06-20T14:24:00.000Z,99166
2018-06-20T14:29:00.000Z,99159
2018-06-20T14:34:00.000Z,99155
2018-06-20T14:39:00.000Z,99158
2018-06-20T14:44:00.000Z,99147
2018-06-20T14:49:00.000Z,99129
2018-06-20T14:54:00.000Z,99136
2018-06-20T14:59:00.000Z,99128
2018-06-20T15:04:00.000Z,99127
2018-06-20T15:09:00.000Z,99122
2018-06-20T15:14:00.000Z,99111
2018-06-20T15:19:00.000Z,99105
2018-06-20T15:24:00.000Z,99101
2018-06-20T15:29:00.000Z,99100
2018-06-20T15:34:00.000Z,99092
2018-06-20T15:39:00.000Z,99082
2018-06-20T15:44:00.000Z,99082
2018-06-20T15:49:00.000Z,99079
2018-06-20T15:54:00.000Z,99077
2018-06-20T15:59:00.000Z,99074
2018-06-20T16:04:00.000Z,99072
2018-06-20T16:09:00.000Z,99070
2018-06-20T16:14:00.000Z,99070
2018-06-20T16:19:00.000Z,99070
2018-06-20T16:24:00.000Z,99064
2018-06-20T16:29:00.000Z,99058
2018-06-20T16:34:00.000Z,99054
2018-06-20T16:39:00.000Z,99053
2018-06-20T16:44:00.000Z,99054
2018-06-20T16:49:00.000Z,99051
2018-06-20T16:54:00.000Z,99049
2018-06-20T16:59:00.000Z,99050
2018-06-20T17:04:00.000Z,99045
2018-06-20T17:09:00.000Z,99031
2018-06-20T17:14:00.000Z,99035
2018-06-20T17:19:00.000Z,99034
2018-06-20T17:24:00.000Z,99028
2018-06-20T17:29:00.000Z,99025
2018-06-20T17:35:00.000Z,99027
2018-06-20T17:40:00.000Z,99021
2018-06-20T17:45:00.000Z,99012
2018-06-20T17:50:00.000Z,99012
2018-06-20T17:55:00.000Z,99015
2018-06-20T18:00:00.000Z,99019
2018-06-20T18:05:00.000Z,99026
2018-06-20T18:10:00.000Z,99016
2018-06-20T18:15:00.000Z,99022
2018-06-20T18:20:00.000Z,99018
2018-06-20T18:25:00.000Z,99024
2018-06-20T18:30:00.000Z,99017
2018-06-20T18:35:00.000Z,99015
2018-06-20T18:40:00.000Z,99015
2018-06-20T18:45:00.000Z,99012
2018-06-20T18:50:00.000Z,99011
2018-06-20T18:55:00.000Z,99009
2018-06-20T19:00:00.000Z,99011
2018-06-20T19:05:00.000Z,99019
2018-06-20T19:10:00.000Z,99017
2018-06-20T19:15:00.000Z,99009
2018-06-20T19:20:00.000Z,99018
2018-06-20T19:25:00.000Z,99020
2018-06-20T19:30:00.000Z,99014
2018-06-20T19:35:00.000Z,99022
2018-06-20T19:40:00.000Z,99029
2018-06-20T19:45:00.000Z,99026
2018-06-20T19:50:00.000Z,99037
2018-06-20T19:55:00.000Z,99029
2018-06-20T20:00:00.000Z,99026
2018-06-20T20:05:00.000Z,99023
2018-06-20T20:10:00.000Z,99020
2018-06-20T20:15:00.000Z,99024
2018-06-20T20:20:00.000Z,99023
2018-06-20T20:25:00.000Z,99016
2018-06-20T20:30:00.000Z,99012
2018-06-20T20:35:00.000Z,99012
2018-06-20T20:40:00.000Z,99002
2018-06-20T20:45:00.000Z,98996
2018-06-20T20:50:00.000Z,98999
2018-06-20T20:55:00.000Z,99004
2018-06-20T21:00:00.000Z,98991
2018-06-20T21:05:00.000Z,98990
2018-06-20T21:10:00.000Z,98987
2018-06-20T21:15:00.000Z,98989
2018-06-20T21:20:00.000Z,98989
2018-06-20T21:25:00.000Z,98984
2018-06-20T21:30:00.000Z,98983
2018-06-20T21:35:00.000Z,98982
2018-06-20T21:40:00.000Z,98976
2018-06-20T21:45:00.000Z,98975
2018-06-20T21:50:00.000Z,98979
2018-06-20T21:55:00.000Z,98973
2018-06-20T22:00:00.000Z,98962
2018-06-20T22:05:00.000Z,98953
2018-06-20T22:10:00.000Z,98949
2018-06-20T22:15:00.000Z,98953
2018-06-20T22:20:00.000Z,98939
2018-06-20T22:25:00.000Z,98940
2018-06-20T22:30:00.000Z,98942
2018-06-20T22:35:00.000Z,98936
2018-06-20T22:40:00.000Z,98928
2018-06-20T22:45:00.000Z,98922
2018-06-20T22:50:00.000Z,98920
2018-06-20T22:55:00.000Z,98916
2018-06-20T23:00:00.000Z,98914
2018-06-20T23:05:00.000Z,98911
2018-06-20T23:10:00.000Z,98904
2018-06-20T23:15:00.000Z,98896
2018-06-20T23:20:00.000Z,98893
2018-06-20T23:25:00.000Z,98887
2018-06-20T23:31:00.000Z,98878
2018-06-20T23:36:00.000Z,98881
2018-06-20T23:41:00.000Z,98868
2018-06-20T23:46:00.000Z,98868
2018-06-20T23:51:00.000Z,98873
2018-06-20T23:56:00.000Z,98854
